Time;durP1;ratioP1;P1;durP2;ratioP2;P2;SDS_P1;SDS_P2;PMS_P1;PMS_P2;Temp;Humidity;BMP_temperature;BMP_pressure;BME280_temperature;BME280_humidity;BME280_pressure;Samples;Min_cycle;Max_cycle;Signal;HPM_P1;HPM_P2
2021/03/29 00:01:07;;;;;;;7.07;2.20;;;8.80;99.90;;;;;;5042383;28;20513;-65
2021/03/29 00:03:33;;;;;;;7.28;1.92;;;8.80;99.90;;;;;;5038709;28;20253;-65
2021/03/29 00:05:59;;;;;;;7.22;1.80;;;8.80;99.90;;;;;;5040368;28;20025;-66
2021/03/29 00:08:29;;;;;;;8.15;1.70;;;8.70;99.90;;;;;;5039449;28;20521;-66
2021/03/29 00:10:56;;;;;;;5.32;1.90;;;8.70;99.90;;;;;;5040829;28;20029;-65
2021/03/29 00:13:24;;;;;;;6.97;2.35;;;8.70;99.90;;;;;;5043332;28;20078;-66
2021/03/29 00:15:52;;;;;;;6.65;2.08;;;8.60;99.90;;;;;;5039504;28;20025;-66
2021/03/29 00:18:18;;;;;;;6.00;2.20;;;8.60;99.90;;;;;;5038526;28;20323;-66
2021/03/29 00:20:49;;;;;;;7.25;2.95;;;8.60;99.90;;;;;;5041670;28;20029;-65
2021/03/29 00:23:16;;;;;;;8.93;2.92;;;8.50;99.90;;;;;;5042472;28;20107;-65
2021/03/29 00:25:41;;;;;;;8.60;2.33;;;8.50;99.90;;;;;;5038853;28;20675;-66
2021/03/29 00:28:07;;;;;;;10.05;2.58;;;8.40;99.90;;;;;;5043024;28;20033;-66
2021/03/29 00:30:40;;;;;;;7.18;2.45;;;8.40;99.90;;;;;;5041012;28;20045;-66
2021/03/29 00:33:07;;;;;;;8.18;3.08;;;8.30;99.90;;;;;;5041687;28;20033;-66
2021/03/29 00:35:35;;;;;;;12.38;2.75;;;8.40;99.90;;;;;;5041223;28;20037;-66
2021/03/29 00:38:03;;;;;;;10.20;2.83;;;8.30;99.90;;;;;;5039033;28;20041;-66
2021/03/29 00:40:29;;;;;;;9.52;2.83;;;8.30;99.90;;;;;;5044261;28;20029;-66
2021/03/29 00:43:07;;;;;;;9.50;2.72;;;8.30;99.90;;;;;;5040340;28;20041;-65
2021/03/29 00:45:33;;;;;;;12.02;3.25;;;8.30;99.90;;;;;;5037925;28;20037;-66
2021/03/29 00:48:00;;;;;;;9.57;2.80;;;8.20;99.90;;;;;;5039764;28;20487;-66
2021/03/29 00:50:38;;;;;;;8.73;3.08;;;8.30;99.90;;;;;;5036839;28;20129;-66
2021/03/29 00:53:04;;;;;;;7.60;2.45;;;8.20;99.90;;;;;;5039031;28;20041;-66
2021/03/29 00:55:31;;;;;;;9.45;3.00;;;8.20;99.90;;;;;;5049863;28;20025;-66
2021/03/29 00:57:58;;;;;;;10.52;2.55;;;8.20;99.90;;;;;;5047148;28;20033;-66
2021/03/29 01:00:31;;;;;;;8.52;2.75;;;8.20;99.90;;;;;;5051852;28;20505;-66
2021/03/29 01:02:57;;;;;;;11.93;2.42;;;8.20;99.90;;;;;;5037252;28;20474;-66
2021/03/29 01:05:23;;;;;;;8.75;2.72;;;8.20;99.90;;;;;;5042946;28;20052;-65
2021/03/29 01:07:52;;;;;;;15.38;2.58;;;8.10;99.90;;;;;;5040662;28;20046;-66
2021/03/29 01:10:18;;;;;;;8.13;2.90;;;8.10;99.90;;;;;;5043540;28;20036;-66
2021/03/29 01:12:46;;;;;;;9.55;3.35;;;8.10;99.90;;;;;;5042018;28;20041;-66
2021/03/29 01:15:15;;;;;;;7.35;3.13;;;8.10;99.90;;;;;;5040821;28;20103;-65
2021/03/29 01:17:44;;;;;;;8.15;2.85;;;8.10;99.90;;;;;;5041376;28;20059;-66
2021/03/29 01:20:24;;;;;;;11.45;2.95;;;8.20;99.90;;;;;;5038694;28;20121;-66
2021/03/29 01:22:52;;;;;;;9.75;3.30;;;8.10;99.90;;;;;;5040194;28;20060;-66
2021/03/29 01:25:26;;;;;;;12.02;3.30;;;8.10;99.90;;;;;;5042092;28;20052;-65
2021/03/29 01:28:06;;;;;;;9.93;3.67;;;8.00;99.90;;;;;;5039762;28;20457;-66
2021/03/29 01:30:37;;;;;;;13.45;4.75;;;8.00;99.90;;;;;;5037277;28;20419;-65
2021/03/29 01:33:05;;;;;;;10.73;3.72;;;8.00;99.90;;;;;;5043223;28;20030;-65
2021/03/29 01:35:36;;;;;;;15.10;4.30;;;8.00;99.90;;;;;;5041978;28;20037;-66
2021/03/29 01:38:04;;;;;;;12.00;3.50;;;7.90;99.90;;;;;;5043638;28;20040;-66
2021/03/29 01:40:34;;;;;;;8.48;3.90;;;8.00;99.90;;;;;;5038254;28;20120;-66
2021/03/29 01:43:00;;;;;;;8.60;3.83;;;8.00;99.90;;;;;;5042305;28;20040;-66
2021/03/29 01:45:26;;;;;;;12.85;4.35;;;8.00;99.90;;;;;;5038811;28;20120;-66
2021/03/29 01:47:52;;;;;;;11.77;3.92;;;7.90;99.90;;;;;;5034953;28;20029;-65
2021/03/29 01:50:23;;;;;;;10.70;3.50;;;7.90;99.90;;;;;;5037879;28;20428;-66
2021/03/29 01:52:49;;;;;;;15.18;3.88;;;7.80;99.90;;;;;;5038602;28;20098;-66
2021/03/29 01:55:16;;;;;;;14.45;4.35;;;7.80;99.90;;;;;;5040895;28;20042;-65
2021/03/29 01:57:42;;;;;;;15.98;4.30;;;7.80;99.90;;;;;;5040374;28;20035;-65
2021/03/29 02:00:10;;;;;;;14.07;4.03;;;7.70;99.90;;;;;;5038791;28;20029;-66
2021/03/29 02:02:37;;;;;;;13.15;4.00;;;7.80;99.90;;;;;;5038879;28;20037;-66
2021/03/29 02:05:11;;;;;;;9.90;4.13;;;7.70;99.90;;;;;;5039475;28;20079;-66
2021/03/29 02:07:37;;;;;;;13.82;3.40;;;7.70;99.90;;;;;;5039401;28;20437;-66
2021/03/29 02:10:12;;;;;;;12.60;3.88;;;7.70;99.90;;;;;;5038406;28;20060;-66
2021/03/29 02:12:39;;;;;;;13.25;4.53;;;7.60;99.90;;;;;;5039867;28;20101;-66
2021/03/29 02:15:09;;;;;;;11.27;4.25;;;7.70;99.90;;;;;;5039762;28;20389;-65
2021/03/29 02:17:37;;;;;;;16.75;4.97;;;7.60;99.90;;;;;;5040438;28;20107;-66
2021/03/29 02:20:12;;;;;;;13.68;5.15;;;7.60;99.90;;;;;;5038067;28;20061;-66
2021/03/29 02:22:38;;;;;;;9.73;3.88;;;7.60;99.90;;;;;;5040045;28;20033;-66
2021/03/29 02:25:06;;;;;;;12.88;3.83;;;7.60;99.90;;;;;;5039308;28;20037;-65
2021/03/29 02:27:35;;;;;;;11.18;3.75;;;7.60;99.90;;;;;;5038951;28;20043;-66
2021/03/29 02:30:06;;;;;;;13.43;3.97;;;7.60;99.90;;;;;;5038993;28;20034;-66
2021/03/29 02:32:32;;;;;;;10.20;3.83;;;7.60;99.90;;;;;;5040599;28;20140;-65
2021/03/29 02:34:58;;;;;;;8.43;3.13;;;7.60;99.90;;;;;;5038177;28;20025;-68
2021/03/29 02:37:23;;;;;;;17.63;3.80;;;7.60;99.90;;;;;;5041156;28;20498;-67
2021/03/29 02:39:49;;;;;;;10.23;4.45;;;7.50;99.90;;;;;;5033790;28;20033;-68
2021/03/29 02:42:14;;;;;;;14.20;4.80;;;7.60;99.90;;;;;;5041056;28;20501;-67
2021/03/29 02:44:40;;;;;;;9.45;4.15;;;7.60;99.90;;;;;;5038954;28;20033;-67
2021/03/29 02:47:06;;;;;;;9.60;3.90;;;7.60;99.90;;;;;;5037820;28;20036;-67
2021/03/29 02:49:33;;;;;;;12.13;3.40;;;7.60;99.90;;;;;;5040089;28;20398;-67
2021/03/29 02:51:59;;;;;;;11.38;3.65;;;7.60;99.90;;;;;;5038396;28;20028;-68
2021/03/29 02:54:25;;;;;;;15.75;4.00;;;7.60;99.90;;;;;;5039391;28;20794;-68
2021/03/29 02:56:52;;;;;;;12.68;3.85;;;7.70;99.90;;;;;;5037246;28;20049;-67
2021/03/29 02:59:22;;;;;;;10.27;3.10;;;7.70;99.90;;;;;;5033939;28;20040;-67
2021/03/29 03:01:49;;;;;;;12.00;3.47;;;7.70;99.90;;;;;;5033418;28;20494;-70
2021/03/29 03:04:16;;;;;;;9.05;2.92;;;7.70;99.90;;;;;;5036440;28;20029;-67
2021/03/29 03:06:44;;;;;;;10.10;3.35;;;7.80;99.90;;;;;;5035347;28;20040;-68
2021/03/29 03:09:12;;;;;;;10.63;3.05;;;7.80;99.90;;;;;;5038089;28;20383;-67
2021/03/29 03:11:38;;;;;;;7.55;2.78;;;7.80;99.90;;;;;;5038851;28;20037;-67
2021/03/29 03:14:05;;;;;;;10.05;3.95;;;7.80;99.90;;;;;;5038650;28;20036;-67
2021/03/29 03:16:38;;;;;;;9.63;2.60;;;7.80;99.90;;;;;;5039965;28;20037;-67
2021/03/29 03:19:06;;;;;;;7.30;2.58;;;7.80;99.90;;;;;;5039063;28;20498;-67
2021/03/29 03:21:33;;;;;;;9.73;3.45;;;7.90;99.90;;;;;;5039344;28;20529;-67
2021/03/29 03:23:59;;;;;;;6.88;2.20;;;7.80;99.90;;;;;;5038194;28;20033;-67
2021/03/29 03:26:26;;;;;;;6.47;2.60;;;7.90;99.90;;;;;;5038299;28;20391;-67
2021/03/29 03:28:52;;;;;;;5.88;2.17;;;8.00;99.90;;;;;;5039198;28;20064;-67
2021/03/29 03:31:19;;;;;;;8.95;2.28;;;8.00;99.90;;;;;;5036119;28;20040;-67
2021/03/29 03:33:48;;;;;;;8.32;2.45;;;8.10;99.90;;;;;;5040956;28;20048;-67
2021/03/29 03:36:16;;;;;;;5.95;2.47;;;8.20;99.90;;;;;;5037514;28;20087;-67
2021/03/29 03:38:43;;;;;;;8.00;2.08;;;8.30;99.90;;;;;;5039967;28;20075;-68
2021/03/29 03:41:12;;;;;;;11.25;1.95;;;8.30;99.90;;;;;;5038889;28;20041;-67
2021/03/29 03:43:47;;;;;;;12.45;3.00;;;8.30;99.90;;;;;;5041323;28;20033;-65
2021/03/29 03:46:18;;;;;;;10.07;2.35;;;8.40;99.90;;;;;;5037666;28;20064;-66
2021/03/29 03:48:45;;;;;;;13.27;2.25;;;8.40;99.90;;;;;;5040404;28;20782;-65
2021/03/29 03:51:11;;;;;;;13.13;3.38;;;8.50;99.90;;;;;;5035731;28;20033;-65
2021/03/29 03:53:38;;;;;;;6.63;2.22;;;8.50;99.90;;;;;;5037035;28;20515;-66
2021/03/29 03:56:04;;;;;;;14.07;3.60;;;8.50;99.90;;;;;;5037902;28;20096;-66
2021/03/29 03:58:31;;;;;;;14.18;2.38;;;8.50;99.90;;;;;;5038103;28;20512;-65
2021/03/29 04:00:58;;;;;;;13.52;2.45;;;8.50;99.90;;;;;;5039230;28;20041;-65
2021/03/29 04:03:25;;;;;;;10.50;2.75;;;8.50;99.90;;;;;;5036161;28;20052;-65
2021/03/29 04:05:51;;;;;;;7.22;2.83;;;8.50;99.90;;;;;;5040283;28;20021;-65
2021/03/29 04:08:16;;;;;;;12.68;2.63;;;8.50;99.90;;;;;;5036701;28;20561;-65
2021/03/29 04:13:12;;;;;;;11.35;1.92;;;8.60;99.90;;;;;;5040244;28;20112;-66
2021/03/29 04:15:37;;;;;;;15.60;3.33;;;8.60;99.90;;;;;;5035932;28;20171;-66
2021/03/29 04:18:04;;;;;;;7.32;2.50;;;8.50;99.90;;;;;;5034991;28;20465;-65
2021/03/29 04:20:30;;;;;;;9.25;2.92;;;8.50;99.90;;;;;;5039830;28;20144;-66
2021/03/29 04:22:56;;;;;;;14.60;2.35;;;8.60;99.90;;;;;;5039548;28;20111;-66
2021/03/29 04:25:22;;;;;;;12.27;3.10;;;8.50;99.90;;;;;;5033505;28;20036;-65
2021/03/29 04:27:47;;;;;;;9.68;2.95;;;8.50;99.90;;;;;;5040640;28;20029;-66
2021/03/29 04:30:13;;;;;;;10.52;2.47;;;8.50;99.90;;;;;;5039439;28;20033;-65
2021/03/29 04:32:39;;;;;;;10.55;2.33;;;8.50;99.90;;;;;;5042942;28;20035;-66
2021/03/29 04:35:06;;;;;;;8.93;2.30;;;8.50;99.90;;;;;;5043239;28;20029;-65
2021/03/29 04:37:32;;;;;;;8.75;2.03;;;8.50;99.90;;;;;;5047898;28;20037;-67
2021/03/29 04:39:58;;;;;;;14.02;2.70;;;8.40;99.90;;;;;;5047507;28;20033;-66
2021/03/29 04:42:23;;;;;;;8.38;2.38;;;8.40;99.90;;;;;;5041874;28;20060;-66
2021/03/29 04:44:49;;;;;;;10.60;2.33;;;8.30;99.90;;;;;;5039329;28;20037;-66
2021/03/29 04:47:14;;;;;;;10.75;2.75;;;8.40;99.90;;;;;;5035942;28;20025;-65
2021/03/29 04:49:41;;;;;;;10.35;2.40;;;8.30;99.90;;;;;;5040243;28;20025;-67
2021/03/29 04:52:07;;;;;;;10.73;2.40;;;8.30;99.90;;;;;;5040455;28;20083;-67
2021/03/29 04:54:32;;;;;;;11.90;2.67;;;8.20;99.90;;;;;;5040337;28;20026;-67
2021/03/29 04:56:58;;;;;;;8.95;2.53;;;8.20;99.90;;;;;;5039667;28;20040;-67
2021/03/29 04:59:24;;;;;;;15.25;2.90;;;8.20;99.90;;;;;;5034749;28;20041;-67
2021/03/29 05:01:49;;;;;;;9.35;2.35;;;8.10;99.90;;;;;;5034766;28;20089;-67
2021/03/29 05:04:15;;;;;;;9.57;2.75;;;8.20;99.90;;;;;;5040877;28;20121;-67
2021/03/29 05:06:41;;;;;;;9.45;2.75;;;8.20;99.90;;;;;;5045872;28;20394;-68
2021/03/29 05:09:07;;;;;;;7.55;2.53;;;8.20;99.90;;;;;;5045370;28;20040;-66
2021/03/29 05:11:55;;;;;;;5.53;1.98;;;8.20;99.90;;;;;;5045327;28;20502;-66
2021/03/29 05:14:20;;;;;;;9.77;2.55;;;8.10;99.90;;;;;;5039972;28;20104;-65
2021/03/29 05:16:46;;;;;;;12.88;2.00;;;8.10;99.90;;;;;;5045619;28;20029;-66
2021/03/29 05:19:13;;;;;;;10.82;2.28;;;8.00;99.90;;;;;;5038071;28;20413;-65
2021/03/29 05:21:39;;;;;;;15.88;3.22;;;8.00;99.90;;;;;;5045890;28;20292;-66
2021/03/29 05:24:06;;;;;;;9.70;2.50;;;7.90;99.90;;;;;;5043676;28;20060;-66
2021/03/29 05:26:32;;;;;;;11.73;2.17;;;7.90;99.90;;;;;;5044316;28;20179;-66
2021/03/29 05:28:58;;;;;;;9.48;2.28;;;7.90;99.90;;;;;;5045047;28;20036;-65
2021/03/29 05:31:24;;;;;;;12.35;3.42;;;7.90;99.90;;;;;;5042050;28;20048;-66
2021/03/29 05:33:49;;;;;;;11.75;2.13;;;7.90;99.90;;;;;;5044683;28;20441;-66
2021/03/29 05:36:16;;;;;;;10.95;2.58;;;7.90;99.90;;;;;;5042405;28;20037;-66
2021/03/29 05:38:42;;;;;;;11.98;2.33;;;8.00;99.90;;;;;;5044916;28;20044;-66
2021/03/29 05:41:12;;;;;;;6.95;2.30;;;8.00;99.90;;;;;;5042929;28;20045;-66
2021/03/29 05:43:40;;;;;;;8.70;1.80;;;8.00;99.90;;;;;;5035641;28;20032;-66
2021/03/29 05:46:06;;;;;;;10.93;2.08;;;7.90;99.90;;;;;;5041923;28;20096;-66
2021/03/29 05:48:31;;;;;;;8.23;2.30;;;7.90;99.90;;;;;;5044381;28;20402;-66
2021/03/29 05:51:02;;;;;;;8.32;2.17;;;7.90;99.90;;;;;;5044078;28;20053;-66
2021/03/29 05:53:27;;;;;;;8.63;2.20;;;8.00;99.90;;;;;;5044595;28;20056;-66
2021/03/29 05:55:53;;;;;;;8.02;2.08;;;8.00;99.90;;;;;;5043321;28;20041;-66
2021/03/29 06:00:45;;;;;;;7.82;1.88;;;8.10;99.90;;;;;;5039107;28;20525;-65
2021/03/29 06:03:30;;;;;;;9.05;2.53;;;8.20;99.90;;;;;;5030618;28;20033;-66
2021/03/29 06:06:20;;;;;;;6.10;1.92;;;8.30;99.90;;;;;;5040234;28;20465;-65
2021/03/29 06:08:48;;;;;;;12.05;2.00;;;8.40;99.90;;;;;;5037820;28;20068;-66
2021/03/29 06:11:37;;;;;;;5.82;1.88;;;8.40;99.90;;;;;;5038976;28;20032;-66
2021/03/29 06:14:15;;;;;;;17.42;2.30;;;8.50;99.90;;;;;;5043857;28;20033;-66
2021/03/29 06:17:07;;;;;;;10.02;2.17;;;8.60;99.90;;;;;;5035599;28;20049;-66
2021/03/29 06:19:58;;;;;;;13.32;2.55;;;8.60;99.90;;;;;;5040788;28;20041;-66
2021/03/29 06:22:38;;;;;;;10.85;2.10;;;8.70;99.90;;;;;;5039493;28;20037;-66
2021/03/29 06:25:18;;;;;;;8.85;2.42;;;8.70;99.90;;;;;;5042961;28;20083;-62
2021/03/29 06:27:51;;;;;;;6.47;2.17;;;8.70;99.90;;;;;;5033548;28;20632;-66
2021/03/29 06:30:29;;;;;;;6.85;1.83;;;8.70;99.90;;;;;;5039520;28;20033;-66
2021/03/29 06:33:01;;;;;;;10.82;1.88;;;8.70;99.90;;;;;;5042328;28;20029;-66
2021/03/29 06:35:37;;;;;;;7.95;2.20;;;8.70;99.90;;;;;;5043391;28;20063;-67
2021/03/29 06:38:04;;;;;;;10.05;1.70;;;8.80;99.90;;;;;;5040310;28;20033;-66
2021/03/29 06:40:29;;;;;;;14.70;1.63;;;8.80;99.90;;;;;;5041370;28;20037;-67
2021/03/29 06:42:55;;;;;;;15.05;2.45;;;8.80;99.90;;;;;;5041669;28;20397;-67
2021/03/29 06:45:22;;;;;;;4.53;1.85;;;8.90;99.90;;;;;;5041560;28;20049;-66
2021/03/29 06:47:48;;;;;;;9.35;2.25;;;9.00;99.90;;;;;;5039510;28;20036;-67
2021/03/29 06:50:26;;;;;;;6.00;1.52;;;9.30;99.90;;;;;;5039090;28;20033;-67
2021/03/29 06:52:52;;;;;;;5.78;1.85;;;9.50;99.90;;;;;;5040143;28;20553;-66
2021/03/29 06:55:25;;;;;;;11.27;1.92;;;9.70;99.90;;;;;;5044762;28;20047;-67
2021/03/29 06:58:04;;;;;;;15.13;2.53;;;9.90;99.90;;;;;;5038262;28;20034;-67
2021/03/29 07:00:35;;;;;;;6.90;2.53;;;10.20;99.90;;;;;;5039655;28;20025;-67
2021/03/29 07:03:03;;;;;;;5.15;1.80;;;10.40;99.90;;;;;;5039948;28;20495;-66
2021/03/29 07:05:30;;;;;;;12.35;2.55;;;10.50;99.90;;;;;;5040716;28;20052;-65
2021/03/29 07:08:00;;;;;;;6.88;1.80;;;10.50;99.90;;;;;;5039040;28;20743;-67
2021/03/29 07:10:26;;;;;;;9.23;3.08;;;10.70;99.90;;;;;;5040015;28;20088;-67
2021/03/29 07:12:53;;;;;;;9.10;1.70;;;10.80;99.90;;;;;;5041156;28;20041;-66
2021/03/29 07:15:19;;;;;;;6.15;1.80;;;11.00;99.90;;;;;;5041920;28;20048;-67
2021/03/29 07:17:45;;;;;;;9.52;2.00;;;11.20;99.90;;;;;;5038578;28;20040;-66
2021/03/29 07:20:21;;;;;;;8.43;1.67;;;11.20;99.90;;;;;;5040384;28;20398;-67
2021/03/29 07:22:49;;;;;;;13.02;2.20;;;11.40;99.90;;;;;;5038803;28;20163;-66
2021/03/29 07:25:15;;;;;;;9.13;2.22;;;11.50;99.90;;;;;;5042393;28;20116;-66
2021/03/29 07:27:45;;;;;;;5.43;1.60;;;11.60;99.90;;;;;;5039847;28;20039;-66
2021/03/29 07:30:15;;;;;;;8.48;1.77;;;11.70;99.90;;;;;;5039357;28;20121;-67
2021/03/29 07:32:41;;;;;;;8.30;2.33;;;11.70;99.90;;;;;;5041612;28;20033;-68
2021/03/29 07:35:08;;;;;;;13.25;2.15;;;11.80;99.90;;;;;;5040082;28;20047;-67
2021/03/29 07:37:35;;;;;;;5.88;1.90;;;11.90;99.90;;;;;;5041610;28;20123;-66
2021/03/29 07:40:15;;;;;;;11.63;1.83;;;11.90;99.90;;;;;;5038504;28;20033;-67
2021/03/29 07:42:42;;;;;;;18.65;3.10;;;12.00;99.90;;;;;;5037228;28;20025;-67
2021/03/29 07:45:11;;;;;;;13.88;2.15;;;12.10;99.90;;;;;;5040273;28;20486;-67
2021/03/29 07:47:57;;;;;;;7.95;1.48;;;12.20;99.90;;;;;;5041806;28;20033;-67
2021/03/29 07:50:25;;;;;;;4.82;1.50;;;12.20;99.90;;;;;;5037891;28;20048;-67
2021/03/29 07:52:59;;;;;;;8.23;1.50;;;12.30;99.90;;;;;;5033105;28;20039;-67
2021/03/29 07:55:31;;;;;;;8.30;1.98;;;12.30;99.90;;;;;;5030309;28;20568;-67
2021/03/29 07:57:56;;;;;;;9.73;2.22;;;12.20;99.90;;;;;;5037627;28;20029;-66
2021/03/29 08:00:25;;;;;;;5.80;1.50;;;12.40;99.90;;;;;;5041012;28;20566;-68
2021/03/29 08:02:56;;;;;;;6.68;1.90;;;12.40;99.90;;;;;;5035502;28;20037;-65
2021/03/29 08:05:48;;;;;;;6.45;1.40;;;12.50;99.90;;;;;;5043463;28;20375;-67
2021/03/29 08:08:26;;;;;;;5.85;1.50;;;12.70;99.90;;;;;;5043511;28;20481;-67
2021/03/29 08:11:12;;;;;;;8.07;1.63;;;12.80;99.90;;;;;;5043762;28;20534;-67
2021/03/29 08:13:39;;;;;;;8.38;2.17;;;12.90;99.90;;;;;;5042241;28;20029;-67
2021/03/29 08:16:07;;;;;;;5.35;1.70;;;13.00;99.90;;;;;;5043384;28;20049;-68
2021/03/29 08:19:14;;;;;;;3.70;1.15;;;13.10;99.90;;;;;;5046243;28;20049;-66
2021/03/29 08:21:49;;;;;;;7.35;1.50;;;13.10;99.90;;;;;;5059948;28;20067;-68
2021/03/29 08:24:24;;;;;;;9.68;1.75;;;13.30;99.90;;;;;;5052781;28;20033;-66
2021/03/29 08:26:51;;;;;;;9.63;1.77;;;13.30;99.90;;;;;;5059953;28;20031;-68
2021/03/29 08:29:27;;;;;;;5.13;1.80;;;13.40;99.90;;;;;;5044985;28;20490;-67
2021/03/29 08:32:07;;;;;;;9.27;2.20;;;13.50;99.90;;;;;;5040377;28;20025;-67
2021/03/29 08:34:36;;;;;;;10.02;1.85;;;13.40;99.90;;;;;;5039301;28;20039;-67
2021/03/29 08:37:07;;;;;;;7.72;1.65;;;13.40;99.90;;;;;;5042254;28;20128;-67
2021/03/29 08:39:36;;;;;;;9.07;1.88;;;13.50;99.90;;;;;;5039453;28;20509;-67
2021/03/29 08:42:03;;;;;;;5.63;1.95;;;13.50;99.90;;;;;;5037829;28;20038;-67
2021/03/29 08:44:30;;;;;;;10.75;1.80;;;13.70;99.90;;;;;;5044897;28;20056;-67
2021/03/29 08:46:56;;;;;;;9.40;1.70;;;13.70;99.90;;;;;;5042905;28;20034;-66
2021/03/29 08:49:23;;;;;;;6.95;1.67;;;13.80;99.90;;;;;;5040082;28;20041;-67
2021/03/29 08:51:50;;;;;;;6.63;1.60;;;13.90;99.90;;;;;;5040848;28;20071;-66
2021/03/29 08:54:16;;;;;;;9.52;1.55;;;14.00;99.90;;;;;;5043313;28;20042;-67
2021/03/29 08:56:44;;;;;;;14.13;2.10;;;14.00;99.90;;;;;;5041414;28;20087;-67
2021/03/29 08:59:11;;;;;;;14.02;2.55;;;14.10;99.90;;;;;;5043466;28;20031;-66
2021/03/29 09:01:41;;;;;;;12.02;1.70;;;14.20;99.90;;;;;;5043999;28;20060;-67
2021/03/29 09:04:10;;;;;;;3.42;0.95;;;14.20;99.90;;;;;;5041845;28;20037;-67
2021/03/29 09:06:36;;;;;;;5.25;1.63;;;14.40;99.90;;;;;;5036739;28;20036;-68
2021/03/29 09:09:12;;;;;;;10.68;2.15;;;14.40;99.90;;;;;;5031940;28;20042;-66
2021/03/29 09:11:42;;;;;;;9.00;1.67;;;14.40;99.90;;;;;;5043455;28;20553;-67
2021/03/29 09:14:12;;;;;;;7.82;1.80;;;14.50;99.90;;;;;;5041128;28;20661;-66
2021/03/29 09:16:38;;;;;;;10.05;1.70;;;14.60;99.90;;;;;;5042187;28;20044;-66
2021/03/29 09:19:18;;;;;;;6.43;1.58;;;14.80;99.90;;;;;;5037731;28;20029;-66
2021/03/29 09:21:51;;;;;;;8.73;1.85;;;14.80;99.90;;;;;;5035213;28;20032;-67
2021/03/29 09:24:22;;;;;;;8.05;1.70;;;14.90;99.90;;;;;;5036191;28;20091;-66
2021/03/29 09:27:03;;;;;;;7.53;1.52;;;15.00;99.90;;;;;;5032971;28;20026;-67
2021/03/29 09:29:37;;;;;;;6.68;1.40;;;15.10;99.90;;;;;;5037667;28;20032;-67
2021/03/29 09:32:07;;;;;;;12.38;2.38;;;15.10;99.90;;;;;;5031271;28;20033;-67
2021/03/29 09:34:36;;;;;;;5.10;1.38;;;15.20;99.90;;;;;;5040466;28;20090;-65
2021/03/29 09:37:03;;;;;;;4.32;1.80;;;15.10;99.90;;;;;;5041388;28;20056;-68
2021/03/29 09:39:30;;;;;;;10.10;2.03;;;15.20;99.90;;;;;;5042599;28;20633;-67
2021/03/29 09:41:57;;;;;;;8.05;1.92;;;15.20;99.90;;;;;;5035791;28;20041;-66
2021/03/29 09:44:29;;;;;;;7.57;1.60;;;15.30;99.90;;;;;;5040674;28;20091;-67
2021/03/29 09:46:57;;;;;;;11.10;2.22;;;15.40;99.90;;;;;;5030219;28;20535;-67
2021/03/29 09:49:23;;;;;;;8.32;1.70;;;15.40;99.90;;;;;;5031863;28;20053;-67
2021/03/29 09:51:51;;;;;;;12.82;1.80;;;15.50;99.90;;;;;;5033218;28;20028;-67
2021/03/29 09:54:35;;;;;;;10.93;1.95;;;15.60;99.90;;;;;;5032186;28;20439;-67
2021/03/29 09:57:12;;;;;;;7.70;2.47;;;15.50;99.90;;;;;;5033313;28;20540;-67
2021/03/29 09:59:40;;;;;;;7.72;1.92;;;15.60;99.90;;;;;;5029119;28;20033;-67
2021/03/29 10:02:17;;;;;;;17.55;2.63;;;15.70;99.90;;;;;;5030200;28;20029;-68
2021/03/29 10:04:44;;;;;;;4.85;1.52;;;15.80;99.90;;;;;;5032782;28;20101;-67
2021/03/29 10:07:14;;;;;;;7.82;1.60;;;15.90;99.90;;;;;;5034063;28;20040;-67
2021/03/29 10:09:41;;;;;;;6.53;1.80;;;16.00;99.90;;;;;;5038816;28;20036;-67
2021/03/29 10:12:07;;;;;;;9.27;1.38;;;16.00;99.90;;;;;;5037321;28;20037;-67
2021/03/29 10:14:35;;;;;;;9.00;2.00;;;16.10;99.90;;;;;;5040841;28;20044;-66
2021/03/29 10:17:01;;;;;;;8.00;1.55;;;16.10;99.90;;;;;;5039733;28;20079;-67
2021/03/29 10:19:33;;;;;;;8.45;1.80;;;16.10;99.90;;;;;;5037153;28;20060;-67
2021/03/29 10:22:11;;;;;;;10.20;2.10;;;16.10;99.90;;;;;;5040883;28;20069;-66
2021/03/29 10:24:58;;;;;;;9.02;1.88;;;16.10;99.90;;;;;;5039650;28;20681;-66
2021/03/29 10:27:24;;;;;;;8.50;1.85;;;16.30;99.90;;;;;;5040593;28;20037;-67
2021/03/29 10:29:50;;;;;;;5.28;1.70;;;16.40;99.90;;;;;;5041670;28;20037;-66
2021/03/29 10:32:18;;;;;;;10.68;2.13;;;16.40;99.90;;;;;;5035813;28;20037;-66
2021/03/29 10:34:45;;;;;;;8.45;1.95;;;16.40;99.90;;;;;;5034591;28;20030;-66
2021/03/29 10:37:23;;;;;;;6.60;1.83;;;16.40;99.90;;;;;;5036338;28;20116;-66
2021/03/29 10:39:50;;;;;;;8.65;2.15;;;16.40;99.90;;;;;;5036691;28;20032;-67
2021/03/29 10:42:17;;;;;;;5.88;1.77;;;16.30;99.90;;;;;;5035517;28;20112;-67
2021/03/29 10:44:43;;;;;;;7.80;1.83;;;16.30;99.90;;;;;;5036207;28;20034;-67
2021/03/29 10:47:10;;;;;;;17.67;1.90;;;16.20;99.90;;;;;;5030991;28;20092;-67
2021/03/29 10:49:36;;;;;;;10.20;1.60;;;16.20;99.90;;;;;;5035671;28;20030;-66
2021/03/29 10:52:02;;;;;;;6.25;1.73;;;16.10;99.90;;;;;;5038346;28;20040;-66
2021/03/29 10:54:28;;;;;;;8.88;1.80;;;16.20;99.90;;;;;;5038988;28;20051;-69
2021/03/29 10:56:53;;;;;;;11.98;2.10;;;16.30;99.90;;;;;;5037888;28;20115;-66
2021/03/29 10:59:19;;;;;;;9.30;2.05;;;16.30;99.90;;;;;;5037367;28;20520;-67
2021/03/29 11:01:45;;;;;;;10.30;2.47;;;16.20;99.90;;;;;;5038236;28;20803;-67
2021/03/29 11:04:10;;;;;;;7.28;2.55;;;16.20;99.90;;;;;;5037561;28;20106;-67
2021/03/29 11:06:36;;;;;;;14.88;2.25;;;16.20;99.20;;;;;;5038453;28;20060;-67
2021/03/29 11:09:01;;;;;;;9.27;2.35;;;16.30;99.50;;;;;;5041296;28;20037;-67
2021/03/29 11:11:27;;;;;;;11.13;1.55;;;16.30;97.90;;;;;;5039791;28;20067;-67
2021/03/29 11:13:52;;;;;;;5.13;1.52;;;16.30;97.80;;;;;;5035478;28;20044;-67
2021/03/29 11:16:20;;;;;;;6.13;1.52;;;16.30;97.90;;;;;;5039838;28;20139;-67
2021/03/29 11:18:46;;;;;;;8.02;1.70;;;16.30;97.60;;;;;;5036132;28;20053;-67
2021/03/29 11:21:11;;;;;;;8.55;1.70;;;16.30;97.10;;;;;;5038459;28;20056;-67
2021/03/29 11:23:37;;;;;;;9.63;1.85;;;16.30;98.00;;;;;;5037694;28;20123;-67
2021/03/29 11:26:03;;;;;;;8.93;2.03;;;16.30;97.60;;;;;;5038148;28;20033;-66
2021/03/29 11:28:28;;;;;;;9.07;2.22;;;16.30;97.50;;;;;;5039161;28;20041;-67
2021/03/29 11:30:54;;;;;;;6.20;1.75;;;16.30;97.80;;;;;;5042351;28;20037;-67
2021/03/29 11:33:21;;;;;;;6.13;1.90;;;16.30;98.60;;;;;;5038324;28;20128;-67
2021/03/29 11:35:47;;;;;;;8.13;2.13;;;16.30;98.00;;;;;;5036000;28;20029;-66
2021/03/29 11:38:12;;;;;;;12.02;2.10;;;16.30;97.90;;;;;;5038123;28;20034;-66
2021/03/29 11:40:38;;;;;;;9.02;1.85;;;16.20;97.60;;;;;;5042438;28;20028;-67
2021/03/29 11:43:03;;;;;;;5.88;1.40;;;16.30;98.40;;;;;;5042222;28;20029;-66
2021/03/29 11:45:29;;;;;;;9.95;2.33;;;16.30;98.20;;;;;;5042896;28;20057;-67
2021/03/29 11:47:54;;;;;;;8.98;2.13;;;16.40;98.50;;;;;;5042167;28;20045;-67
2021/03/29 11:50:20;;;;;;;7.13;1.67;;;16.40;97.50;;;;;;5043876;28;20025;-67
2021/03/29 11:52:46;;;;;;;7.35;1.40;;;16.50;95.20;;;;;;5039791;28;20037;-66
2021/03/29 11:55:12;;;;;;;6.90;1.65;;;16.50;93.30;;;;;;5043891;28;20234;-67
2021/03/29 11:57:40;;;;;;;11.82;1.70;;;16.50;92.70;;;;;;5044219;28;20037;-67
2021/03/29 12:00:12;;;;;;;5.45;1.20;;;16.50;88.20;;;;;;5041767;28;20044;-66
2021/03/29 12:02:43;;;;;;;5.32;1.23;;;16.50;88.00;;;;;;5040943;28;20091;-66
2021/03/29 12:05:18;;;;;;;4.75;1.20;;;16.50;86.60;;;;;;5047416;28;20032;-66
2021/03/29 12:13:10;;;;;;;10.02;2.25;;;16.40;86.20;;;;;;5046676;28;20044;-66
2021/03/29 12:15:37;;;;;;;5.97;1.48;;;16.40;88.40;;;;;;5043958;28;20021;-66
2021/03/29 12:18:03;;;;;;;14.23;1.65;;;16.40;85.90;;;;;;5043407;28;20132;-67
2021/03/29 12:20:29;;;;;;;6.47;1.63;;;16.40;86.70;;;;;;5039433;28;20021;-67
2021/03/29 12:22:57;;;;;;;7.28;1.40;;;16.50;81.90;;;;;;5040169;28;20387;-67
2021/03/29 12:25:24;;;;;;;4.65;1.33;;;16.50;82.00;;;;;;5041250;28;20029;-67
2021/03/29 12:27:51;;;;;;;5.22;1.40;;;16.40;80.60;;;;;;5023910;28;20104;-67
2021/03/29 12:30:17;;;;;;;5.60;1.40;;;16.50;81.20;;;;;;5032907;28;20037;-67
2021/03/29 12:32:45;;;;;;;6.65;1.42;;;16.50;82.10;;;;;;5040717;28;20025;-67
2021/03/29 12:35:16;;;;;;;6.57;1.10;;;16.60;83.00;;;;;;5043716;28;20025;-67
2021/03/29 12:37:45;;;;;;;8.05;1.15;;;16.60;79.50;;;;;;5038718;28;20120;-67
2021/03/29 12:40:14;;;;;;;6.82;1.52;;;16.70;78.00;;;;;;5031809;28;20033;-67
2021/03/29 12:42:50;;;;;;;7.25;2.03;;;16.80;78.40;;;;;;5039687;28;20040;-68
2021/03/29 12:45:26;;;;;;;9.80;1.40;;;16.90;78.00;;;;;;5020669;28;20041;-67
2021/03/29 12:47:53;;;;;;;5.97;1.35;;;17.00;78.20;;;;;;5032109;28;20041;-68
2021/03/29 12:50:22;;;;;;;3.33;1.65;;;17.00;78.70;;;;;;5039370;28;20033;-67
2021/03/29 12:52:48;;;;;;;11.00;1.85;;;17.10;79.90;;;;;;5038482;28;20475;-68
2021/03/29 12:55:21;;;;;;;7.20;1.70;;;17.10;83.10;;;;;;5037223;28;20078;-68
2021/03/29 12:57:48;;;;;;;7.82;2.25;;;17.20;80.40;;;;;;5035449;28;20576;-68
2021/03/29 13:00:21;;;;;;;6.35;1.80;;;17.20;80.90;;;;;;5036652;28;20056;-67
2021/03/29 13:02:48;;;;;;;7.38;1.95;;;17.30;75.50;;;;;;5034126;28;20374;-67
2021/03/29 13:05:23;;;;;;;5.50;1.83;;;17.30;77.20;;;;;;5036406;28;20628;-68
2021/03/29 13:08:05;;;;;;;6.78;1.27;;;17.30;75.20;;;;;;5034585;28;20390;-67